Time;durP1;ratioP1;P1;durP2;ratioP2;P2;SDS_P1;SDS_P2;PMS_P1;PMS_P2;Temp;Humidity;BMP_temperature;BMP_pressure;BME280_temperature;BME280_humidity;BME280_pressure;Samples;Min_cycle;Max_cycle;Signal;HPM_P1;HPM_P2
2022/04/12 00:01:06;;;;;;;7.68;6.70;;;7.60;72.60;;;;;;5047834;28;20258;-84
2022/04/12 00:03:33;;;;;;;12.27;6.95;;;;;;;;;;5047632;28;20242;-83
2022/04/12 00:06:01;;;;;;;9.52;7.18;;;7.60;73.00;;;;;;5030301;28;20212;-84
2022/04/12 00:08:28;;;;;;;6.82;6.22;;;7.50;76.70;;;;;;5031409;28;20666;-84
2022/04/12 00:10:56;;;;;;;7.70;7.00;;;;;;;;;;5031091;28;20299;-84
2022/04/12 00:13:25;;;;;;;7.05;5.70;;;7.20;78.30;;;;;;5030849;28;20215;-83
2022/04/12 00:15:53;;;;;;;7.82;6.22;;;;;;;;;;5030691;28;20282;-84
2022/04/12 00:21:07;;;;;;;13.43;7.10;;;7.30;92.10;;;;;;5030929;28;20222;-84
2022/04/12 00:23:35;;;;;;;11.77;7.30;;;;;;;;;;5030718;28;20215;-84
2022/04/12 00:26:03;;;;;;;7.50;6.70;;;;;;;;;;5030474;28;20206;-84
2022/04/12 00:28:32;;;;;;;9.43;8.45;;;7.10;76.50;;;;;;5030897;28;20212;-84
2022/04/12 00:30:59;;;;;;;8.02;6.90;;;7.20;84.10;;;;;;5030860;28;20613;-84
2022/04/12 00:33:29;;;;;;;7.80;7.03;;;7.10;95.00;;;;;;5030792;28;20202;-84
2022/04/12 00:36:00;;;;;;;10.02;7.35;;;;;;;;;;5030348;28;20200;-84
2022/04/12 00:38:33;;;;;;;9.10;6.90;;;7.70;86.00;;;;;;5029077;28;20310;-84
2022/04/12 00:41:00;;;;;;;9.50;6.20;;;7.00;91.10;;;;;;5041734;28;20288;-84
2022/04/12 00:43:29;;;;;;;7.30;6.20;;;7.00;75.50;;;;;;5050669;28;20199;-84
2022/04/12 00:46:00;;;;;;;9.38;7.40;;;7.70;91.40;;;;;;5049870;28;20604;-84
2022/04/12 00:48:27;;;;;;;8.00;7.30;;;7.10;96.10;;;;;;5050651;28;20525;-84
2022/04/12 00:50:55;;;;;;;7.80;7.00;;;7.70;91.70;;;;;;5050164;28;20226;-84
2022/04/12 00:53:22;;;;;;;7.95;6.50;;;6.30;91.30;;;;;;5050647;28;20526;-83
2022/04/12 00:55:51;;;;;;;7.10;6.40;;;7.10;77.30;;;;;;5050173;28;20295;-84
2022/04/12 00:58:19;;;;;;;6.80;6.10;;;7.00;84.00;;;;;;5050353;28;20611;-84
2022/04/12 01:00:48;;;;;;;10.52;8.00;;;7.10;84.50;;;;;;5050774;28;20225;-84
2022/04/12 01:03:16;;;;;;;8.75;7.18;;;6.80;77.20;;;;;;5049516;28;20206;-84
2022/04/12 01:05:43;;;;;;;9.07;7.53;;;;;;;;;;5049318;28;20201;-84
2022/04/12 01:08:10;;;;;;;7.10;6.10;;;7.10;96.30;;;;;;5050121;28;20284;-84
2022/04/12 01:10:39;;;;;;;8.43;6.75;;;7.20;76.90;;;;;;5050187;28;20651;-84
2022/04/12 01:13:08;;;;;;;8.23;6.78;;;7.00;91.60;;;;;;5050139;28;20197;-84
2022/04/12 01:15:37;;;;;;;8.23;7.38;;;6.90;93.00;;;;;;5049475;28;20194;-84
2022/04/12 01:18:04;;;;;;;10.50;7.00;;;7.00;77.00;;;;;;5049897;28;20775;-84
2022/04/12 01:20:31;;;;;;;8.27;7.45;;;7.00;77.80;;;;;;5049804;28;20202;-84
2022/04/12 01:23:07;;;;;;;9.18;6.30;;;6.90;81.20;;;;;;5049903;28;20207;-84
2022/04/12 01:25:37;;;;;;;9.27;6.40;;;7.20;89.70;;;;;;5049315;28;20201;-84
2022/04/12 01:28:04;;;;;;;8.98;6.20;;;6.90;76.70;;;;;;5049686;28;20549;-84
2022/04/12 01:30:31;;;;;;;7.55;6.75;;;7.20;93.90;;;;;;5049780;28;20242;-84
2022/04/12 01:32:59;;;;;;;8.93;6.90;;;7.40;80.70;;;;;;5050137;28;20204;-84
2022/04/12 01:35:26;;;;;;;8.93;6.25;;;;;;;;;;5048969;28;20283;-84
2022/04/12 01:37:54;;;;;;;7.57;5.78;;;6.90;77.80;;;;;;5048530;28;20206;-84
2022/04/12 01:40:21;;;;;;;7.72;6.32;;;6.90;95.20;;;;;;5044053;28;20209;-84
2022/04/12 01:42:52;;;;;;;8.70;7.22;;;6.70;86.50;;;;;;5029137;28;20709;-84
2022/04/12 01:45:19;;;;;;;7.45;5.78;;;6.80;91.90;;;;;;5029279;28;20204;-84
2022/04/12 01:47:47;;;;;;;6.93;6.18;;;;;;;;;;5029957;28;20205;-84
2022/04/12 01:50:14;;;;;;;11.18;7.53;;;7.40;90.20;;;;;;5029487;28;20665;-83
2022/04/12 01:52:41;;;;;;;10.07;7.68;;;;;;;;;;5029816;28;20253;-84
2022/04/12 01:55:09;;;;;;;10.65;6.65;;;7.10;90.50;;;;;;5029638;28;20279;-84
2022/04/12 01:57:36;;;;;;;9.98;7.72;;;;;;;;;;5030495;28;20203;-84
2022/04/12 02:00:07;;;;;;;9.88;7.78;;;7.00;76.00;;;;;;5030344;28;20205;-84
2022/04/12 02:02:34;;;;;;;10.45;7.40;;;6.90;96.00;;;;;;5029622;28;20233;-84
2022/04/12 02:05:01;;;;;;;9.27;7.82;;;;;;;;;;5041278;28;20568;-84
2022/04/12 02:07:28;;;;;;;10.57;7.50;;;6.80;96.90;;;;;;5048745;28;20284;-84
2022/04/12 02:09:55;;;;;;;11.35;7.95;;;;;;;;;;5048499;28;20208;-84
2022/04/12 02:12:22;;;;;;;8.73;7.72;;;;;;;;;;5049070;28;20211;-84
2022/04/12 02:14:49;;;;;;;7.07;6.20;;;6.60;95.30;;;;;;5048925;28;20226;-84
2022/04/12 02:17:18;;;;;;;8.27;6.60;;;7.00;90.50;;;;;;5048408;28;20294;-84
2022/04/12 02:19:44;;;;;;;10.13;7.82;;;6.90;91.00;;;;;;5048772;28;20205;-84
2022/04/12 02:22:12;;;;;;;9.75;7.53;;;;;;;;;;5048690;28;20239;-84
2022/04/12 02:24:38;;;;;;;8.63;6.93;;;7.40;91.90;;;;;;5048291;28;20204;-84
2022/04/12 02:27:06;;;;;;;8.13;6.93;;;;;;;;;;5047883;28;20207;-84
2022/04/12 02:29:33;;;;;;;8.00;6.78;;;6.80;91.00;;;;;;5048880;28;20606;-84
2022/04/12 02:32:00;;;;;;;8.82;7.18;;;;;;;;;;5048589;28;20211;-84
2022/04/12 02:34:28;;;;;;;11.98;6.97;;;6.80;90.80;;;;;;5048548;28;20730;-84
2022/04/12 02:36:55;;;;;;;10.50;7.97;;;6.50;91.50;;;;;;5047252;28;20225;-84
2022/04/12 02:39:22;;;;;;;10.48;8.18;;;;;;;;;;5048527;28;20788;-84
2022/04/12 02:41:49;;;;;;;9.40;7.45;;;6.90;91.40;;;;;;5031063;28;20225;-84
2022/04/12 02:44:16;;;;;;;9.48;7.85;;;6.40;94.50;;;;;;5028482;28;20288;-84
2022/04/12 02:46:43;;;;;;;10.98;7.63;;;7.10;95.40;;;;;;5027869;28;20293;-84
2022/04/12 02:49:10;;;;;;;8.05;7.32;;;6.60;80.10;;;;;;5028340;28;20207;-84
2022/04/12 02:51:38;;;;;;;10.07;7.63;;;6.60;94.20;;;;;;5027885;28;20283;-84
2022/04/12 02:54:05;;;;;;;9.18;7.70;;;6.50;93.70;;;;;;5028440;28;20206;-84
2022/04/12 02:56:32;;;;;;;8.90;8.10;;;6.40;90.20;;;;;;5027666;28;20683;-84
2022/04/12 02:58:59;;;;;;;8.60;7.47;;;6.60;94.80;;;;;;5028531;28;20189;-84
2022/04/12 03:01:26;;;;;;;8.57;6.80;;;6.80;95.20;;;;;;5028102;28;20222;-84
2022/04/12 03:03:53;;;;;;;8.73;7.65;;;9.00;96.10;;;;;;5031007;28;22032;-84
2022/04/12 03:06:20;;;;;;;9.50;7.80;;;6.60;92.10;;;;;;5047105;28;20207;-84
2022/04/12 03:08:48;;;;;;;8.30;7.50;;;8.70;83.00;;;;;;5048379;28;20251;-84
2022/04/12 03:11:15;;;;;;;8.90;7.40;;;6.70;94.70;;;;;;5047923;28;20756;-84
2022/04/12 03:13:42;;;;;;;7.90;6.93;;;6.40;90.80;;;;;;5048403;28;20290;-84
2022/04/12 03:16:09;;;;;;;13.57;8.20;;;6.50;95.00;;;;;;5047515;28;20258;-84
2022/04/12 03:18:36;;;;;;;11.40;8.27;;;6.10;94.60;;;;;;5047776;28;20295;-84
2022/04/12 03:21:03;;;;;;;9.13;7.90;;;6.40;90.90;;;;;;5048060;28;20239;-84
2022/04/12 03:23:30;;;;;;;13.82;9.20;;;6.60;80.10;;;;;;5048559;28;20263;-84
2022/04/12 03:25:58;;;;;;;9.30;7.65;;;8.40;81.60;;;;;;5047507;28;20305;-84
2022/04/12 03:28:25;;;;;;;9.23;7.68;;;6.70;79.00;;;;;;5047780;28;20748;-84
2022/04/12 03:30:52;;;;;;;9.73;8.07;;;7.60;94.70;;;;;;5047828;28;20203;-84
2022/04/12 03:33:19;;;;;;;10.85;7.30;;;6.90;89.10;;;;;;5047538;28;20234;-85
2022/04/12 03:35:45;;;;;;;8.00;6.80;;;6.80;93.70;;;;;;5047353;28;20597;-85
2022/04/12 03:38:14;;;;;;;7.95;6.93;;;6.90;78.20;;;;;;5046778;28;20204;-84
2022/04/12 03:40:42;;;;;;;9.27;8.00;;;6.90;78.10;;;;;;5042441;28;20204;-84
2022/04/12 03:43:10;;;;;;;8.00;6.88;;;6.80;77.90;;;;;;5031879;28;20232;-84
2022/04/12 03:45:37;;;;;;;8.00;6.50;;;;;;;;;;5031057;28;20251;-85
2022/04/12 03:48:05;;;;;;;11.18;7.82;;;6.60;94.20;;;;;;5031636;28;20276;-85
2022/04/12 03:50:34;;;;;;;9.57;7.68;;;6.40;81.60;;;;;;5031804;28;20204;-84
2022/04/12 03:53:02;;;;;;;8.75;7.47;;;6.10;90.80;;;;;;5031960;28;20200;-85
2022/04/12 03:55:34;;;;;;;9.75;8.75;;;6.40;81.70;;;;;;5030788;28;20206;-84
2022/04/12 03:58:02;;;;;;;9.30;7.75;;;6.40;82.10;;;;;;5031603;28;20208;-84
2022/04/12 04:00:31;;;;;;;9.25;7.47;;;6.50;90.00;;;;;;5031069;28;20606;-84
2022/04/12 04:02:58;;;;;;;7.68;6.80;;;6.50;80.50;;;;;;5031609;28;20323;-84
2022/04/12 04:05:25;;;;;;;8.63;7.40;;;6.50;81.10;;;;;;5045828;28;20232;-84
2022/04/12 04:07:52;;;;;;;8.80;7.90;;;6.50;81.40;;;;;;5051173;28;20235;-85
2022/04/12 04:10:20;;;;;;;9.63;8.65;;;6.40;82.00;;;;;;5051196;28;20283;-84
2022/04/12 04:12:47;;;;;;;8.82;7.30;;;6.20;82.10;;;;;;5050940;28;20224;-85
2022/04/12 04:15:14;;;;;;;8.75;7.95;;;6.20;82.80;;;;;;5050684;28;20243;-85
2022/04/12 04:17:43;;;;;;;8.32;7.30;;;6.20;83.60;;;;;;5051349;28;20207;-84
2022/04/12 04:20:11;;;;;;;10.05;8.52;;;6.10;90.70;;;;;;5051066;28;20682;-84
2022/04/12 04:22:40;;;;;;;8.70;7.65;;;6.20;82.60;;;;;;5050934;28;20227;-84
2022/04/12 04:25:08;;;;;;;8.68;7.88;;;6.20;83.30;;;;;;5050658;28;20204;-84
2022/04/12 04:27:35;;;;;;;9.00;8.10;;;5.90;95.80;;;;;;5050501;28;20697;-85
2022/04/12 04:30:03;;;;;;;7.82;6.95;;;6.00;84.40;;;;;;5051156;28;20212;-84
2022/04/12 04:32:30;;;;;;;9.82;7.72;;;6.00;84.60;;;;;;5051514;28;20558;-84
2022/04/12 04:34:58;;;;;;;9.10;7.47;;;6.70;85.70;;;;;;5050875;28;20196;-85
2022/04/12 04:37:25;;;;;;;12.40;8.38;;;5.90;85.30;;;;;;5049123;28;20235;-85
2022/04/12 04:39:52;;;;;;;8.45;7.63;;;6.00;93.10;;;;;;5048739;28;20201;-85
2022/04/12 04:42:20;;;;;;;8.15;7.20;;;6.00;84.00;;;;;;5031048;28;20307;-85
2022/04/12 04:44:47;;;;;;;9.05;8.15;;;5.90;84.50;;;;;;5031131;28;20204;-85
2022/04/12 04:47:14;;;;;;;9.00;8.20;;;5.80;95.20;;;;;;5029947;28;20279;-84
2022/04/12 04:49:41;;;;;;;11.20;8.45;;;5.90;85.10;;;;;;5031007;28;20201;-85
2022/04/12 04:52:09;;;;;;;9.60;7.68;;;6.00;84.70;;;;;;5030264;28;20243;-84
2022/04/12 04:54:36;;;;;;;11.75;8.60;;;6.20;93.60;;;;;;5030256;28;20236;-85
2022/04/12 04:57:03;;;;;;;9.57;8.18;;;6.20;83.70;;;;;;5029839;28;20787;-85
2022/04/12 04:59:30;;;;;;;11.35;8.02;;;6.10;83.80;;;;;;5030997;28;20291;-84
2022/04/12 05:01:57;;;;;;;13.93;8.63;;;6.20;83.20;;;;;;5030380;28;20213;-85
2022/04/12 05:04:24;;;;;;;8.73;7.70;;;6.20;83.30;;;;;;5037453;28;20195;-84
2022/04/12 05:06:51;;;;;;;9.38;8.38;;;;;;;;;;5049822;28;20279;-84
2022/04/12 05:09:19;;;;;;;8.82;7.40;;;6.30;94.70;;;;;;5050231;28;20203;-85
2022/04/12 05:11:46;;;;;;;11.25;8.45;;;6.20;83.40;;;;;;5051639;28;20192;-84
2022/04/12 05:14:13;;;;;;;10.82;8.80;;;6.20;83.50;;;;;;5051751;28;20597;-84
2022/04/12 05:16:40;;;;;;;10.95;8.07;;;6.20;83.80;;;;;;5049983;28;20245;-84
2022/04/12 05:19:07;;;;;;;10.20;8.60;;;6.00;94.90;;;;;;5049849;28;20290;-85
2022/04/12 05:21:34;;;;;;;8.50;7.72;;;6.20;84.60;;;;;;5049552;28;20213;-85
2022/04/12 05:24:01;;;;;;;11.07;8.05;;;6.10;85.10;;;;;;5050197;28;20321;-84
2022/04/12 05:26:30;;;;;;;13.00;8.90;;;6.10;84.80;;;;;;5049563;28;20215;-85
2022/04/12 05:28:57;;;;;;;9.70;8.05;;;6.20;84.20;;;;;;5049953;28;20232;-85
2022/04/12 05:31:23;;;;;;;11.43;10.00;;;6.20;84.90;;;;;;5049916;28;20271;-85
2022/04/12 05:33:50;;;;;;;9.50;8.45;;;6.20;85.30;;;;;;5049857;28;20196;-85
2022/04/12 05:36:17;;;;;;;9.25;8.25;;;6.40;92.20;;;;;;5047437;28;20215;-85
2022/04/12 05:38:44;;;;;;;10.88;8.43;;;6.30;85.90;;;;;;5049804;28;20322;-84
2022/04/12 05:41:11;;;;;;;8.73;7.82;;;6.70;84.70;;;;;;5037577;28;20288;-85
2022/04/12 05:43:39;;;;;;;10.30;9.07;;;6.60;83.80;;;;;;5029822;28;20228;-85
2022/04/12 05:46:06;;;;;;;10.40;8.18;;;6.70;83.00;;;;;;5028945;28;20239;-85
2022/04/12 05:48:33;;;;;;;8.60;7.70;;;6.80;83.00;;;;;;5029263;28;20200;-84
2022/04/12 05:51:00;;;;;;;11.05;8.45;;;6.70;94.40;;;;;;5029824;28;20279;-84
2022/04/12 05:53:28;;;;;;;11.45;9.45;;;6.80;82.80;;;;;;5029385;28;20192;-84
2022/04/12 05:55:55;;;;;;;9.48;8.50;;;6.80;83.50;;;;;;5028626;28;20679;-84
2022/04/12 05:58:22;;;;;;;9.70;8.70;;;6.80;83.90;;;;;;5029132;28;20210;-85
2022/04/12 06:00:50;;;;;;;8.43;7.57;;;7.10;94.70;;;;;;5029277;28;20291;-84
2022/04/12 06:03:17;;;;;;;9.75;7.50;;;6.70;93.80;;;;;;5028425;28;20262;-84
2022/04/12 06:05:44;;;;;;;10.88;7.95;;;7.10;82.90;;;;;;5046627;28;20280;-84
2022/04/12 06:08:11;;;;;;;8.80;7.90;;;7.20;82.40;;;;;;5048892;28;20207;-84
2022/04/12 06:10:38;;;;;;;11.27;8.75;;;7.30;82.90;;;;;;5049148;28;20255;-84
2022/04/12 06:13:05;;;;;;;9.38;8.00;;;7.40;83.10;;;;;;5049054;28;20279;-84
2022/04/12 06:15:31;;;;;;;9.20;8.25;;;7.50;82.30;;;;;;5048504;28;20205;-84
2022/04/12 06:18:00;;;;;;;11.52;9.20;;;7.60;93.50;;;;;;5048319;28;20227;-84
2022/04/12 06:20:27;;;;;;;10.25;9.15;;;7.70;81.80;;;;;;5048696;28;20263;-84
2022/04/12 06:22:54;;;;;;;9.63;8.73;;;8.10;89.40;;;;;;5048690;28;20308;-84
2022/04/12 06:25:21;;;;;;;12.88;7.80;;;7.90;80.60;;;;;;5048303;28;20206;-84
2022/04/12 06:27:51;;;;;;;11.35;8.45;;;8.00;80.80;;;;;;5048729;28;20269;-84
2022/04/12 06:30:20;;;;;;;9.85;7.72;;;8.10;81.00;;;;;;5048948;28;20196;-84
2022/04/12 06:32:47;;;;;;;10.82;8.07;;;8.10;81.30;;;;;;5049107;28;20318;-84
2022/04/12 06:35:16;;;;;;;9.30;6.45;;;8.20;80.70;;;;;;5048225;28;20263;-84
2022/04/12 06:37:45;;;;;;;10.63;8.07;;;8.30;80.60;;;;;;5047745;28;20214;-84
2022/04/12 06:40:15;;;;;;;9.27;7.72;;;8.40;80.20;;;;;;5044724;28;20322;-84
2022/04/12 06:42:42;;;;;;;11.05;8.63;;;;;;;;;;5028465;28;20227;-85
2022/04/12 06:45:12;;;;;;;8.35;7.50;;;8.50;92.10;;;;;;5027626;28;20293;-84
2022/04/12 06:47:39;;;;;;;7.38;6.68;;;8.60;79.00;;;;;;5028552;28;20195;-84
2022/04/12 06:50:07;;;;;;;8.88;7.97;;;8.70;79.40;;;;;;5028619;28;20205;-84
2022/04/12 06:52:35;;;;;;;9.02;7.78;;;8.90;78.70;;;;;;5028517;28;20556;-84
2022/04/12 06:55:03;;;;;;;8.77;7.88;;;9.00;79.00;;;;;;5028315;28;20677;-83
2022/04/12 06:57:31;;;;;;;10.15;8.95;;;9.40;92.00;;;;;;5027785;28;20306;-84
2022/04/12 06:59:58;;;;;;;11.10;8.23;;;9.20;77.50;;;;;;5028499;28;20204;-84
2022/04/12 07:02:25;;;;;;;7.80;7.10;;;9.50;92.40;;;;;;5028650;28;20281;-84
2022/04/12 07:04:52;;;;;;;10.02;7.90;;;9.40;78.00;;;;;;5039060;28;20211;-84
2022/04/12 07:07:19;;;;;;;9.13;6.72;;;9.50;77.60;;;;;;5047935;28;20249;-84
2022/04/12 07:09:47;;;;;;;7.35;6.65;;;9.90;77.60;;;;;;5048227;28;20200;-84
2022/04/12 07:12:14;;;;;;;15.53;7.57;;;9.60;91.70;;;;;;5047912;28;20203;-84
2022/04/12 07:14:41;;;;;;;10.20;7.80;;;9.70;76.70;;;;;;5051468;28;20748;-84
2022/04/12 07:17:08;;;;;;;9.67;7.90;;;9.80;75.60;;;;;;5051631;28;20676;-84
2022/04/12 07:19:35;;;;;;;7.50;6.80;;;9.90;75.30;;;;;;5052388;28;20654;-83
2022/04/12 07:22:02;;;;;;;8.93;7.37;;;10.00;73.90;;;;;;5052105;28;20648;-84
2022/04/12 07:24:28;;;;;;;9.27;7.40;;;10.10;72.70;;;;;;5051808;28;21223;-84
2022/04/12 07:26:57;;;;;;;7.80;7.03;;;10.30;71.90;;;;;;5051573;28;21254;-84
2022/04/12 07:29:24;;;;;;;7.67;6.97;;;;;;;;;;5052297;28;20642;-84
2022/04/12 07:31:51;;;;;;;7.60;6.90;;;10.50;70.30;;;;;;5052223;28;20717;-84
2022/04/12 07:34:18;;;;;;;9.53;7.67;;;10.50;70.50;;;;;;5052145;28;20667;-84
2022/04/12 07:36:47;;;;;;;8.60;7.63;;;10.60;70.50;;;;;;5050284;28;20645;-83
2022/04/12 07:39:15;;;;;;;9.30;7.27;;;10.30;78.50;;;;;;5051674;28;20638;-84
2022/04/12 07:41:42;;;;;;;8.93;7.40;;;10.50;71.30;;;;;;5035241;28;20676;-84
2022/04/12 07:44:10;;;;;;;12.30;8.50;;;10.60;72.00;;;;;;5032241;28;20774;-84
2022/04/12 07:46:37;;;;;;;14.97;8.80;;;10.80;71.80;;;;;;5031731;28;20722;-84
2022/04/12 07:49:04;;;;;;;7.63;6.87;;;11.00;69.80;;;;;;5032016;28;20655;-83
2022/04/12 07:51:31;;;;;;;7.60;6.87;;;11.30;81.70;;;;;;5031517;28;20717;-84
2022/04/12 07:53:58;;;;;;;7.87;7.07;;;11.40;86.10;;;;;;5031799;28;20754;-84
2022/04/12 07:56:25;;;;;;;9.10;7.20;;;11.20;70.40;;;;;;5031176;28;20637;-84
2022/04/12 07:58:52;;;;;;;8.10;7.30;;;11.40;70.90;;;;;;5031766;28;21258;-84
2022/04/12 08:01:20;;;;;;;11.27;8.07;;;11.50;70.90;;;;;;5031836;28;20902;-84
2022/04/12 08:03:48;;;;;;;9.10;6.43;;;11.60;69.80;;;;;;5033578;28;21111;-83
2022/04/12 08:06:14;;;;;;;7.70;6.90;;;11.90;84.60;;;;;;5050338;28;21152;-84
2022/04/12 08:08:42;;;;;;;7.07;6.47;;;11.60;84.20;;;;;;5051741;28;20657;-84
2022/04/12 08:11:08;;;;;;;13.00;7.63;;;11.80;67.20;;;;;;5051658;28;20619;-83
2022/04/12 08:13:35;;;;;;;8.90;7.53;;;11.90;68.00;;;;;;5051429;28;21211;-84
2022/04/12 08:16:02;;;;;;;7.50;6.47;;;12.00;67.50;;;;;;5051226;28;20622;-84
2022/04/12 08:18:31;;;;;;;12.60;7.80;;;12.10;66.30;;;;;;5051677;28;20650;-85
2022/04/12 08:20:58;;;;;;;8.13;6.53;;;12.50;82.90;;;;;;5051603;28;20633;-84
2022/04/12 08:23:26;;;;;;;7.23;6.50;;;12.40;66.30;;;;;;5051791;28;20694;-83
2022/04/12 08:25:53;;;;;;;8.97;5.93;;;12.60;67.10;;;;;;5050316;28;20626;-84
2022/04/12 08:28:21;;;;;;;11.10;6.90;;;12.60;66.30;;;;;;5051216;28;20733;-84
2022/04/12 08:30:48;;;;;;;7.80;7.00;;;12.80;67.00;;;;;;5050961;28;20616;-83
2022/04/12 08:33:14;;;;;;;9.70;5.90;;;13.00;75.90;;;;;;5050602;28;20638;-84
2022/04/12 08:35:43;;;;;;;6.73;6.03;;;13.00;64.90;;;;;;5050212;28;21149;-84
2022/04/12 08:38:10;;;;;;;5.00;4.53;;;13.10;65.10;;;;;;5049895;28;20619;-84
2022/04/12 08:40:37;;;;;;;6.13;5.30;;;13.20;70.00;;;;;;5043152;28;20694;-84
2022/04/12 08:43:06;;;;;;;7.73;5.23;;;13.30;63.70;;;;;;5030754;28;20740;-84
2022/04/12 08:45:36;;;;;;;4.60;4.20;;;13.50;63.40;;;;;;5029980;28;20621;-84
2022/04/12 08:48:06;;;;;;;4.87;4.47;;;13.60;77.10;;;;;;5030431;28;21115;-84
2022/04/12 08:50:33;;;;;;;6.17;4.30;;;13.70;60.70;;;;;;5031022;28;20614;-84
2022/04/12 08:53:02;;;;;;;6.57;5.50;;;13.80;59.60;;;;;;5030607;28;21014;-82
2022/04/12 08:55:29;;;;;;;9.40;5.47;;;14.00;62.10;;;;;;5029874;28;20627;-84
2022/04/12 08:57:57;;;;;;;5.57;4.63;;;14.10;62.20;;;;;;5030488;28;20680;-84
2022/04/12 09:00:24;;;;;;;4.40;4.00;;;14.30;62.50;;;;;;5029727;28;21062;-83
2022/04/12 09:02:57;;;;;;;5.33;4.80;;;14.40;59.80;;;;;;5031057;28;20732;-84
2022/04/12 09:05:25;;;;;;;7.90;4.37;;;14.60;59.90;;;;;;5044932;28;21074;-83
2022/04/12 09:07:52;;;;;;;6.60;4.80;;;;;;;;;;5050361;28;20733;-84
2022/04/12 09:10:25;;;;;;;4.43;4.03;;;14.80;58.80;;;;;;5049965;28;20617;-84
2022/04/12 09:12:53;;;;;;;8.67;4.67;;;;;;;;;;5049764;28;20639;-84
2022/04/12 09:15:23;;;;;;;9.10;5.97;;;14.70;63.70;;;;;;5049569;28;20646;-84
2022/04/12 09:17:50;;;;;;;5.97;4.93;;;14.80;73.00;;;;;;5050330;28;21021;-84
2022/04/12 09:20:19;;;;;;;4.53;3.80;;;14.80;59.10;;;;;;5050362;28;20610;-84
2022/04/12 09:22:46;;;;;;;4.70;4.20;;;14.90;58.00;;;;;;5050104;28;20725;-84
2022/04/12 09:25:15;;;;;;;4.40;3.87;;;15.40;66.60;;;;;;5048949;28;20752;-84
2022/04/12 09:27:49;;;;;;;5.43;4.40;;;15.40;58.40;;;;;;5049619;28;20727;-83
2022/04/12 09:30:16;;;;;;;6.57;4.47;;;15.40;58.70;;;;;;5049830;28;20638;-83
2022/04/12 09:32:46;;;;;;;5.27;4.17;;;15.60;59.40;;;;;;5049784;28;20627;-84
2022/04/12 09:35:13;;;;;;;4.00;3.47;;;15.80;72.80;;;;;;5049516;28;20657;-83
2022/04/12 09:37:42;;;;;;;3.93;3.53;;;15.80;70.10;;;;;;5047742;28;20654;-84
2022/04/12 09:40:12;;;;;;;3.10;2.80;;;15.90;68.90;;;;;;5045416;28;20623;-84
2022/04/12 09:42:49;;;;;;;3.87;3.50;;;16.00;56.60;;;;;;5029849;28;20729;-83
2022/04/12 09:45:17;;;;;;;4.60;3.77;;;16.20;55.50;;;;;;5029416;28;21293;-84
2022/04/12 09:47:45;;;;;;;4.13;3.43;;;16.20;55.80;;;;;;5029541;28;21356;-84
2022/04/12 09:50:13;;;;;;;6.90;3.60;;;;;;;;;;5029355;28;20622;-83
2022/04/12 09:52:51;;;;;;;3.50;3.20;;;17.10;66.60;;;;;;5029498;28;20630;-84
2022/04/12 09:55:33;;;;;;;6.77;3.50;;;16.70;55.70;;;;;;5028739;28;20655;-84
2022/04/12 09:58:03;;;;;;;3.73;2.93;;;16.80;55.30;;;;;;5029470;28;20638;-84
2022/04/12 10:00:30;;;;;;;3.73;3.23;;;17.20;54.70;;;;;;5029530;28;20619;-83
2022/04/12 10:02:59;;;;;;;4.80;3.30;;;17.40;66.10;;;;;;5028960;28;20646;-83
2022/04/12 10:05:26;;;;;;;8.03;3.57;;;17.40;54.70;;;;;;5043809;28;20671;-84
2022/04/12 10:07:56;;;;;;;3.83;3.50;;;17.60;55.70;;;;;;5049409;28;20721;-84
2022/04/12 10:10:23;;;;;;;4.30;4.00;;;17.70;55.40;;;;;;5048821;28;20722;-84
2022/04/12 10:12:51;;;;;;;4.80;4.00;;;17.70;56.10;;;;;;5049196;28;20676;-83
2022/04/12 10:15:20;;;;;;;4.73;3.97;;;17.50;57.60;;;;;;5048222;28;20700;-84
2022/04/12 10:17:48;;;;;;;4.63;4.23;;;17.60;55.10;;;;;;5049245;28;20676;-84
2022/04/12 10:20:16;;;;;;;4.50;3.90;;;17.70;55.80;;;;;;5049338;28;20630;-83
2022/04/12 10:22:43;;;;;;;4.33;3.43;;;17.80;55.80;;;;;;5049221;28;20606;-83
2022/04/12 10:25:11;;;;;;;4.47;4.07;;;17.90;56.50;;;;;;5048045;28;21140;-84
2022/04/12 10:27:39;;;;;;;4.93;3.80;;;17.80;56.10;;;;;;5048895;28;20660;-83
2022/04/12 10:30:26;;;;;;;3.77;3.40;;;17.70;62.60;;;;;;5048447;28;21558;-84
2022/04/12 10:33:01;;;;;;;4.70;4.30;;;18.00;54.10;;;;;;5049109;28;20630;-84
2022/04/12 10:35:28;;;;;;;5.97;3.77;;;18.10;56.00;;;;;;5048309;28;20617;-83
2022/04/12 10:37:56;;;;;;;4.40;3.97;;;18.20;54.70;;;;;;5048286;28;20680;-84
2022/04/12 10:40:24;;;;;;;4.43;3.63;;;18.30;56.00;;;;;;5042323;28;20628;-84
2022/04/12 10:42:52;;;;;;;4.10;3.70;;;18.10;53.20;;;;;;5028898;28;20734;-84
2022/04/12 10:45:30;;;;;;;3.97;3.60;;;18.30;54.20;;;;;;5028454;28;20713;-84
2022/04/12 10:47:58;;;;;;;5.80;3.30;;;18.40;53.70;;;;;;5029044;28;20693;-84
2022/04/12 10:50:26;;;;;;;3.60;3.30;;;;;;;;;;5028822;28;20612;-84
2022/04/12 10:52:53;;;;;;;3.50;3.20;;;;;;;;;;5028931;28;20697;-83
2022/04/12 10:55:23;;;;;;;3.80;3.33;;;18.40;52.50;;;;;;5028140;28;20710;-84
2022/04/12 10:57:52;;;;;;;7.00;3.50;;;18.70;51.90;;;;;;5028793;28;20673;-84
2022/04/12 11:00:36;;;;;;;5.70;3.50;;;18.50;54.60;;;;;;5127007;27;20858;-81
2022/04/12 11:03:04;;;;;;;4.50;3.07;;;18.90;52.60;;;;;;5127104;27;21017;-81
2022/04/12 11:06:01;;;;;;;5.50;3.30;;;19.20;62.40;;;;;;5126051;27;20718;-81
2022/04/12 11:08:51;;;;;;;3.23;3.03;;;19.30;51.70;;;;;;5126920;27;20694;-81
2022/04/12 11:11:19;;;;;;;3.87;3.47;;;19.40;51.00;;;;;;5127090;27;20622;-83
2022/04/12 11:13:46;;;;;;;3.73;3.43;;;19.90;56.90;;;;;;5126400;27;20607;-83
2022/04/12 11:16:18;;;;;;;4.70;3.20;;;19.80;50.80;;;;;;5125784;27;20611;-84
2022/04/12 11:18:47;;;;;;;3.80;3.50;;;19.90;50.00;;;;;;5126429;27;20650;-84
2022/04/12 11:21:15;;;;;;;3.63;3.30;;;20.10;48.40;;;;;;5126591;27;20618;-83
2022/04/12 11:23:47;;;;;;;3.67;3.37;;;20.00;48.70;;;;;;5126390;27;20713;-84
2022/04/12 11:26:38;;;;;;;3.40;3.10;;;20.40;56.40;;;;;;5124701;27;21255;-84
2022/04/12 11:29:08;;;;;;;4.93;3.60;;;20.40;48.80;;;;;;5126416;27;20699;-84
2022/04/12 11:31:41;;;;;;;5.00;3.07;;;20.30;49.30;;;;;;5126395;27;20642;-84
2022/04/12 11:34:08;;;;;;;5.07;2.87;;;20.30;49.60;;;;;;5126245;27;20619;-84
2022/04/12 11:36:37;;;;;;;3.07;2.83;;;20.30;47.90;;;;;;5124131;27;20643;-84
2022/04/12 11:39:04;;;;;;;5.37;3.53;;;20.30;47.50;;;;;;5126314;27;21202;-84
2022/04/12 11:41:31;;;;;;;3.33;3.07;;;20.20;47.60;;;;;;5126014;27;20742;-84
2022/04/12 11:44:02;;;;;;;5.73;3.33;;;20.10;56.80;;;;;;5126021;27;20674;-84
2022/04/12 11:46:32;;;;;;;3.10;2.40;;;20.20;47.40;;;;;;5125163;27;20721;-84
2022/04/12 11:49:08;;;;;;;2.73;2.53;;;20.40;51.50;;;;;;5125617;27;20666;-84
2022/04/12 11:51:39;;;;;;;4.33;2.97;;;20.20;48.30;;;;;;5126305;27;20708;-84
2022/04/12 11:54:22;;;;;;;3.63;2.30;;;20.40;48.60;;;;;;5126001;27;20646;-84
2022/04/12 11:57:03;;;;;;;2.10;2.00;;;20.70;56.30;;;;;;5124798;27;20627;-84
2022/04/12 11:59:31;;;;;;;3.13;2.83;;;20.90;50.40;;;;;;5125071;27;20658;-84
2022/04/12 12:02:01;;;;;;;3.93;2.63;;;20.80;47.30;;;;;;5125759;27;20674;-83
2022/04/12 12:04:31;;;;;;;5.33;2.37;;;21.10;46.00;;;;;;5125962;27;20611;-84
2022/04/12 12:07:01;;;;;;;2.70;2.50;;;21.10;46.40;;;;;;5125167;27;20701;-84
2022/04/12 12:09:28;;;;;;;4.10;2.23;;;;;;;;;;5125485;27;20627;-84
2022/04/12 12:11:58;;;;;;;2.90;2.30;;;21.50;45.40;;;;;;5111299;27;20641;-84
2022/04/12 12:14:27;;;;;;;2.43;2.23;;;21.50;45.80;;;;;;5111718;28;20616;-84
2022/04/12 12:17:06;;;;;;;3.47;2.30;;;21.30;46.80;;;;;;5111169;28;20656;-84
2022/04/12 12:19:38;;;;;;;2.80;2.60;;;21.40;46.50;;;;;;5111649;28;20679;-84
2022/04/12 12:22:07;;;;;;;2.80;2.20;;;21.40;46.90;;;;;;5111445;28;20623;-84
2022/04/12 12:24:37;;;;;;;3.33;2.27;;;21.30;52.00;;;;;;5111490;27;20615;-84
2022/04/12 12:27:06;;;;;;;3.57;2.50;;;21.10;46.90;;;;;;5110757;28;20624;-84
2022/04/12 12:29:38;;;;;;;3.00;2.80;;;21.10;46.50;;;;;;5111552;27;20628;-84
2022/04/12 12:32:07;;;;;;;4.00;2.00;;;21.10;47.40;;;;;;5111493;28;21079;-84
2022/04/12 12:34:36;;;;;;;4.33;2.90;;;21.10;46.90;;;;;;5111812;28;20643;-84
2022/04/12 12:37:11;;;;;;;2.30;2.10;;;21.20;46.70;;;;;;5109357;28;20623;-84
2022/04/12 12:39:39;;;;;;;3.60;2.50;;;21.20;47.80;;;;;;5111494;28;20658;-84
2022/04/12 12:42:07;;;;;;;2.40;2.20;;;21.20;47.70;;;;;;5111226;28;20627;-84
2022/04/12 12:44:35;;;;;;;3.50;2.63;;;21.30;48.30;;;;;;5111390;28;20632;-84
2022/04/12 12:47:04;;;;;;;3.80;2.27;;;21.10;55.20;;;;;;5110766;28;20626;-84
2022/04/12 12:49:40;;;;;;;2.23;2.03;;;21.40;51.00;;;;;;5110527;28;20730;-85
2022/04/12 12:52:09;;;;;;;2.00;1.90;;;21.50;48.20;;;;;;5111263;28;20630;-84
2022/04/12 12:54:36;;;;;;;3.03;2.43;;;21.70;47.70;;;;;;5111193;28;20620;-84
2022/04/12 12:57:05;;;;;;;2.30;2.10;;;21.80;47.30;;;;;;5110621;28;20677;-84
2022/04/12 12:59:33;;;;;;;4.07;2.23;;;22.00;47.90;;;;;;5110746;28;20647;-84
2022/04/12 13:02:08;;;;;;;1.90;1.80;;;22.40;48.70;;;;;;5110593;27;20619;-84
2022/04/12 13:04:37;;;;;;;3.10;2.20;;;22.30;47.70;;;;;;5110945;28;20739;-84
2022/04/12 13:07:09;;;;;;;2.20;1.90;;;22.40;46.90;;;;;;5110292;28;20626;-84